Keewatin, Canada
Current Conditions -  °F | °C
As of 5:00 PM on Thursday 20 Nov 2014 (Local Time) from CYQK Reporting Station
Few Clouds Few Clouds  
Wind Chill: -6°   Ceiling: Unl
Heat Index:   Visibility: 15mi
Dew Point: -4°   Wind: 5mph
Humidity: 72%   Direction: 280°W
Pressure: 30.05"   Gusts: NA
Location:  49.76°N, 94.56°W
Report Text: CYQK 202300Z 28004KT 15SM FEW015 M16/M20 A3005 RMK SC1 SLP216
Loading
Personal Weather Stations






























Interactive Weather Map New forecast layout! Learn more

10-Day Weather Forecast

Advertisements
Track Severe Weather on mobile